sensor_id;sensor_type;location;lat;lon;timestamp;P1;durP1;ratioP1;P2;durP2;ratioP2
19179;SDS011;9722;48.754;8.868;2022-09-12T00:02:04;5.60;;;5.20;;
19179;SDS011;9722;48.754;8.868;2022-09-12T00:05:25;6.40;;;5.40;;
19179;SDS011;9722;48.754;8.868;2022-09-12T00:08:47;5.00;;;4.70;;
19179;SDS011;9722;48.754;8.868;2022-09-12T00:12:08;5.47;;;5.17;;
19179;SDS011;9722;48.754;8.868;2022-09-12T00:15:28;5.97;;;5.43;;
19179;SDS011;9722;48.754;8.868;2022-09-12T00:18:49;5.60;;;5.07;;
19179;SDS011;9722;48.754;8.868;2022-09-12T00:22:10;4.73;;;4.43;;
19179;SDS011;9722;48.754;8.868;2022-09-12T00:25:31;6.07;;;5.67;;
19179;SDS011;9722;48.754;8.868;2022-09-12T00:28:51;5.30;;;4.97;;
19179;SDS011;9722;48.754;8.868;2022-09-12T00:32:12;6.10;;;5.50;;
19179;SDS011;9722;48.754;8.868;2022-09-12T00:35:32;5.40;;;5.10;;
19179;SDS011;9722;48.754;8.868;2022-09-12T00:38:53;5.73;;;5.33;;
19179;SDS011;9722;48.754;8.868;2022-09-12T00:42:14;5.40;;;5.00;;
19179;SDS011;9722;48.754;8.868;2022-09-12T00:45:34;5.20;;;4.90;;
19179;SDS011;9722;48.754;8.868;2022-09-12T00:48:56;5.27;;;4.83;;
19179;SDS011;9722;48.754;8.868;2022-09-12T00:52:23;5.53;;;5.10;;
19179;SDS011;9722;48.754;8.868;2022-09-12T00:56:03;5.90;;;4.93;;
19179;SDS011;9722;48.754;8.868;2022-09-12T00:59:26;5.60;;;5.10;;
19179;SDS011;9722;48.754;8.868;2022-09-12T01:02:54;4.80;;;4.40;;
19179;SDS011;9722;48.754;8.868;2022-09-12T01:06:24;5.80;;;5.30;;
19179;SDS011;9722;48.754;8.868;2022-09-12T01:09:47;5.80;;;5.40;;
19179;SDS011;9722;48.754;8.868;2022-09-12T01:13:08;5.30;;;4.90;;
19179;SDS011;9722;48.754;8.868;2022-09-12T01:16:30;6.20;;;5.73;;
19179;SDS011;9722;48.754;8.868;2022-09-12T01:20:18;5.80;;;5.40;;
19179;SDS011;9722;48.754;8.868;2022-09-12T01:24:11;6.20;;;5.70;;
19179;SDS011;9722;48.754;8.868;2022-09-12T01:35:52;5.43;;;5.13;;
19179;SDS011;9722;48.754;8.868;2022-09-12T01:39:12;5.07;;;4.67;;
19179;SDS011;9722;48.754;8.868;2022-09-12T01:50:15;5.47;;;5.13;;
19179;SDS011;9722;48.754;8.868;2022-09-12T01:53:43;6.10;;;5.50;;
19179;SDS011;9722;48.754;8.868;2022-09-12T01:57:11;6.27;;;5.77;;
19179;SDS011;9722;48.754;8.868;2022-09-12T02:04:17;6.13;;;5.70;;
19179;SDS011;9722;48.754;8.868;2022-09-12T02:07:52;5.33;;;4.93;;
19179;SDS011;9722;48.754;8.868;2022-09-12T02:11:18;4.63;;;4.33;;
19179;SDS011;9722;48.754;8.868;2022-09-12T02:14:41;5.83;;;5.33;;
19179;SDS011;9722;48.754;8.868;2022-09-12T02:18:05;5.97;;;5.47;;
19179;SDS011;9722;48.754;8.868;2022-09-12T02:21:27;5.50;;;5.00;;
19179;SDS011;9722;48.754;8.868;2022-09-12T02:24:53;5.87;;;5.37;;
19179;SDS011;9722;48.754;8.868;2022-09-12T02:28:18;5.60;;;5.10;;
19179;SDS011;9722;48.754;8.868;2022-09-12T02:32:04;5.20;;;4.80;;
19179;SDS011;9722;48.754;8.868;2022-09-12T02:39:10;5.13;;;4.83;;
19179;SDS011;9722;48.754;8.868;2022-09-12T02:42:31;6.10;;;5.57;;
19179;SDS011;9722;48.754;8.868;2022-09-12T02:45:51;5.40;;;5.00;;
19179;SDS011;9722;48.754;8.868;2022-09-12T02:49:12;6.00;;;5.60;;
19179;SDS011;9722;48.754;8.868;2022-09-12T02:52:34;5.73;;;5.27;;
19179;SDS011;9722;48.754;8.868;2022-09-12T02:55:55;5.67;;;5.37;;
19179;SDS011;9722;48.754;8.868;2022-09-12T02:59:17;5.40;;;5.10;;
19179;SDS011;9722;48.754;8.868;2022-09-12T03:02:52;5.67;;;5.27;;
19179;SDS011;9722;48.754;8.868;2022-09-12T03:06:49;5.67;;;5.27;;
19179;SDS011;9722;48.754;8.868;2022-09-12T03:13:53;4.83;;;4.53;;
19179;SDS011;9722;48.754;8.868;2022-09-12T03:17:36;5.33;;;5.03;;
19179;SDS011;9722;48.754;8.868;2022-09-12T03:21:14;5.83;;;5.33;;
19179;SDS011;9722;48.754;8.868;2022-09-12T03:24:58;5.50;;;5.00;;
19179;SDS011;9722;48.754;8.868;2022-09-12T03:28:36;5.07;;;4.77;;
19179;SDS011;9722;48.754;8.868;2022-09-12T03:31:58;5.27;;;4.87;;
19179;SDS011;9722;48.754;8.868;2022-09-12T03:35:19;5.20;;;4.80;;
19179;SDS011;9722;48.754;8.868;2022-09-12T03:38:41;5.60;;;5.20;;
19179;SDS011;9722;48.754;8.868;2022-09-12T03:42:02;5.30;;;4.90;;
19179;SDS011;9722;48.754;8.868;2022-09-12T03:45:22;5.80;;;5.30;;
19179;SDS011;9722;48.754;8.868;2022-09-12T03:48:43;5.00;;;4.60;;
19179;SDS011;9722;48.754;8.868;2022-09-12T03:52:03;5.57;;;5.17;;
19179;SDS011;9722;48.754;8.868;2022-09-12T03:55:24;5.50;;;5.10;;
19179;SDS011;9722;48.754;8.868;2022-09-12T03:58:45;5.53;;;5.13;;
19179;SDS011;9722;48.754;8.868;2022-09-12T04:02:06;5.90;;;5.40;;
19179;SDS011;9722;48.754;8.868;2022-09-12T04:05:28;5.47;;;5.00;;
19179;SDS011;9722;48.754;8.868;2022-09-12T04:08:50;5.43;;;5.10;;
19179;SDS011;9722;48.754;8.868;2022-09-12T04:12:11;5.57;;;5.17;;
19179;SDS011;9722;48.754;8.868;2022-09-12T04:15:33;6.00;;;4.90;;
19179;SDS011;9722;48.754;8.868;2022-09-12T04:18:53;4.83;;;4.43;;
19179;SDS011;9722;48.754;8.868;2022-09-12T04:22:14;5.27;;;4.80;;
19179;SDS011;9722;48.754;8.868;2022-09-12T04:25:34;5.03;;;4.53;;
19179;SDS011;9722;48.754;8.868;2022-09-12T04:28:55;4.53;;;4.30;;
19179;SDS011;9722;48.754;8.868;2022-09-12T04:32:16;7.73;;;4.93;;
19179;SDS011;9722;48.754;8.868;2022-09-12T04:35:37;5.03;;;4.70;;
19179;SDS011;9722;48.754;8.868;2022-09-12T04:38:59;6.63;;;5.50;;
19179;SDS011;9722;48.754;8.868;2022-09-12T04:42:20;5.63;;;5.13;;
19179;SDS011;9722;48.754;8.868;2022-09-12T04:45:41;4.93;;;4.53;;
19179;SDS011;9722;48.754;8.868;2022-09-12T04:49:02;4.67;;;4.37;;
19179;SDS011;9722;48.754;8.868;2022-09-12T04:52:23;5.27;;;4.87;;
19179;SDS011;9722;48.754;8.868;2022-09-12T04:55:43;5.30;;;4.80;;
19179;SDS011;9722;48.754;8.868;2022-09-12T04:59:05;5.40;;;5.00;;
19179;SDS011;9722;48.754;8.868;2022-09-12T05:02:26;5.80;;;5.30;;
19179;SDS011;9722;48.754;8.868;2022-09-12T05:05:47;4.97;;;4.57;;
19179;SDS011;9722;48.754;8.868;2022-09-12T05:09:12;5.80;;;5.17;;
19179;SDS011;9722;48.754;8.868;2022-09-12T05:12:33;4.93;;;4.53;;
19179;SDS011;9722;48.754;8.868;2022-09-12T05:15:55;5.30;;;4.90;;
19179;SDS011;9722;48.754;8.868;2022-09-12T05:19:17;5.53;;;5.03;;
19179;SDS011;9722;48.754;8.868;2022-09-12T05:22:38;6.07;;;5.47;;
19179;SDS011;9722;48.754;8.868;2022-09-12T05:25:58;9.03;;;5.53;;
19179;SDS011;9722;48.754;8.868;2022-09-12T05:29:20;5.80;;;5.40;;
19179;SDS011;9722;48.754;8.868;2022-09-12T05:32:40;6.17;;;5.43;;
19179;SDS011;9722;48.754;8.868;2022-09-12T05:36:02;6.30;;;5.70;;
19179;SDS011;9722;48.754;8.868;2022-09-12T05:39:25;7.17;;;6.57;;
19179;SDS011;9722;48.754;8.868;2022-09-12T05:42:46;7.97;;;7.30;;
19179;SDS011;9722;48.754;8.868;2022-09-12T05:46:07;7.10;;;6.40;;
19179;SDS011;9722;48.754;8.868;2022-09-12T05:49:30;6.67;;;6.17;;
19179;SDS011;9722;48.754;8.868;2022-09-12T05:52:51;6.63;;;5.67;;
19179;SDS011;9722;48.754;8.868;2022-09-12T05:56:12;5.87;;;5.43;;
19179;SDS011;9722;48.754;8.868;2022-09-12T05:59:34;4.90;;;4.50;;
19179;SDS011;9722;48.754;8.868;2022-09-12T06:02:55;5.93;;;4.70;;
19179;SDS011;9722;48.754;8.868;2022-09-12T06:06:16;6.37;;;4.93;;
19179;SDS011;9722;48.754;8.868;2022-09-12T06:09:38;8.07;;;4.63;;
19179;SDS011;9722;48.754;8.868;2022-09-12T06:12:59;4.90;;;4.43;;
19179;SDS011;9722;48.754;8.868;2022-09-12T06:16:20;4.40;;;4.00;;
19179;SDS011;9722;48.754;8.868;2022-09-12T06:19:42;3.87;;;3.57;;
19179;SDS011;9722;48.754;8.868;2022-09-12T06:23:03;3.87;;;3.43;;
19179;SDS011;9722;48.754;8.868;2022-09-12T06:26:23;3.90;;;3.50;;
19179;SDS011;9722;48.754;8.868;2022-09-12T06:29:45;5.87;;;3.30;;
19179;SDS011;9722;48.754;8.868;2022-09-12T06:33:05;4.47;;;3.83;;
19179;SDS011;9722;48.754;8.868;2022-09-12T06:36:30;3.30;;;3.00;;
19179;SDS011;9722;48.754;8.868;2022-09-12T06:39:52;4.03;;;3.40;;
19179;SDS011;9722;48.754;8.868;2022-09-12T06:43:12;3.20;;;2.97;;
19179;SDS011;9722;48.754;8.868;2022-09-12T06:46:33;4.17;;;3.77;;
19179;SDS011;9722;48.754;8.868;2022-09-12T06:49:54;4.03;;;3.60;;
19179;SDS011;9722;48.754;8.868;2022-09-12T06:53:14;3.80;;;3.50;;
19179;SDS011;9722;48.754;8.868;2022-09-12T06:56:35;2.77;;;2.57;;
19179;SDS011;9722;48.754;8.868;2022-09-12T06:59:56;3.97;;;2.97;;
19179;SDS011;9722;48.754;8.868;2022-09-12T07:03:17;3.87;;;3.10;;
19179;SDS011;9722;48.754;8.868;2022-09-12T07:06:39;3.43;;;3.13;;
19179;SDS011;9722;48.754;8.868;2022-09-12T07:10:01;2.90;;;2.60;;
19179;SDS011;9722;48.754;8.868;2022-09-12T07:13:21;5.33;;;3.03;;
19179;SDS011;9722;48.754;8.868;2022-09-12T07:16:42;3.17;;;2.97;;
19179;SDS011;9722;48.754;8.868;2022-09-12T07:20:03;3.37;;;2.77;;
19179;SDS011;9722;48.754;8.868;2022-09-12T07:23:24;3.23;;;3.03;;
19179;SDS011;9722;48.754;8.868;2022-09-12T07:26:44;3.00;;;2.43;;
19179;SDS011;9722;48.754;8.868;2022-09-12T07:30:05;3.50;;;2.70;;
19179;SDS011;9722;48.754;8.868;2022-09-12T07:33:26;4.67;;;2.93;;
19179;SDS011;9722;48.754;8.868;2022-09-12T07:36:47;3.17;;;2.97;;
19179;SDS011;9722;48.754;8.868;2022-09-12T07:40:08;3.43;;;3.13;;
19179;SDS011;9722;48.754;8.868;2022-09-12T07:43:29;3.30;;;3.00;;
19179;SDS011;9722;48.754;8.868;2022-09-12T07:46:49;4.60;;;2.87;;
19179;SDS011;9722;48.754;8.868;2022-09-12T07:50:11;3.00;;;2.70;;
19179;SDS011;9722;48.754;8.868;2022-09-12T07:53:32;3.20;;;3.00;;
19179;SDS011;9722;48.754;8.868;2022-09-12T07:56:54;3.97;;;1.97;;
19179;SDS011;9722;48.754;8.868;2022-09-12T08:00:15;2.97;;;2.50;;
19179;SDS011;9722;48.754;8.868;2022-09-12T08:03:37;3.23;;;2.70;;
19179;SDS011;9722;48.754;8.868;2022-09-12T08:07:01;2.67;;;1.80;;
19179;SDS011;9722;48.754;8.868;2022-09-12T08:10:22;3.13;;;1.70;;
19179;SDS011;9722;48.754;8.868;2022-09-12T08:13:43;2.23;;;2.13;;
19179;SDS011;9722;48.754;8.868;2022-09-12T08:17:04;2.00;;;1.90;;
19179;SDS011;9722;48.754;8.868;2022-09-12T08:20:25;2.03;;;1.93;;
19179;SDS011;9722;48.754;8.868;2022-09-12T08:23:46;3.27;;;1.77;;
19179;SDS011;9722;48.754;8.868;2022-09-12T08:27:10;1.47;;;1.43;;
19179;SDS011;9722;48.754;8.868;2022-09-12T08:30:31;1.83;;;1.73;;
19179;SDS011;9722;48.754;8.868;2022-09-12T08:33:53;1.70;;;1.60;;
19179;SDS011;9722;48.754;8.868;2022-09-12T08:37:15;1.50;;;1.40;;
19179;SDS011;9722;48.754;8.868;2022-09-12T08:40:45;2.10;;;1.90;;
19179;SDS011;9722;48.754;8.868;2022-09-12T08:44:34;2.83;;;1.30;;
19179;SDS011;9722;48.754;8.868;2022-09-12T08:48:15;1.47;;;1.37;;
19179;SDS011;9722;48.754;8.868;2022-09-12T08:51:35;1.60;;;1.50;;
19179;SDS011;9722;48.754;8.868;2022-09-12T08:54:57;2.43;;;1.40;;
19179;SDS011;9722;48.754;8.868;2022-09-12T08:58:20;2.00;;;1.30;;
19179;SDS011;9722;48.754;8.868;2022-09-12T09:01:43;1.27;;;1.20;;
19179;SDS011;9722;48.754;8.868;2022-09-12T09:05:17;2.13;;;1.50;;
19179;SDS011;9722;48.754;8.868;2022-09-12T09:12:12;1.37;;;1.27;;
19179;SDS011;9722;48.754;8.868;2022-09-12T09:15:46;1.40;;;1.30;;
19179;SDS011;9722;48.754;8.868;2022-09-12T09:19:33;1.37;;;1.37;;
19179;SDS011;9722;48.754;8.868;2022-09-12T09:23:01;1.30;;;1.20;;
19179;SDS011;9722;48.754;8.868;2022-09-12T09:26:38;1.77;;;1.37;;
19179;SDS011;9722;48.754;8.868;2022-09-12T09:30:20;1.27;;;1.27;;
19179;SDS011;9722;48.754;8.868;2022-09-12T09:33:41;1.40;;;1.30;;
19179;SDS011;9722;48.754;8.868;2022-09-12T09:41:06;3.07;;;1.37;;
19179;SDS011;9722;48.754;8.868;2022-09-12T09:44:47;1.30;;;1.20;;
19179;SDS011;9722;48.754;8.868;2022-09-12T09:48:16;1.50;;;1.40;;
19179;SDS011;9722;48.754;8.868;2022-09-12T09:51:39;1.60;;;1.37;;
19179;SDS011;9722;48.754;8.868;2022-09-12T09:55:01;1.30;;;1.20;;
19179;SDS011;9722;48.754;8.868;2022-09-12T09:58:31;1.37;;;1.20;;
19179;SDS011;9722;48.754;8.868;2022-09-12T10:02:02;1.40;;;1.40;;
19179;SDS011;9722;48.754;8.868;2022-09-12T10:05:23;1.50;;;1.40;;
19179;SDS011;9722;48.754;8.868;2022-09-12T10:08:43;1.30;;;1.30;;
19179;SDS011;9722;48.754;8.868;2022-09-12T10:12:46;1.20;;;1.20;;
19179;SDS011;9722;48.754;8.868;2022-09-12T10:15:54;1.03;;;1.03;;
19179;SDS011;9722;48.754;8.868;2022-09-12T10:19:20;1.20;;;1.10;;
19179;SDS011;9722;48.754;8.868;2022-09-12T10:22:55;1.20;;;1.10;;
19179;SDS011;9722;48.754;8.868;2022-09-12T10:26:19;1.23;;;0.90;;
19179;SDS011;9722;48.754;8.868;2022-09-12T10:29:45;1.30;;;1.20;;
19179;SDS011;9722;48.754;8.868;2022-09-12T10:33:27;1.10;;;1.03;;
19179;SDS011;9722;48.754;8.868;2022-09-12T10:36:48;1.10;;;1.10;;
19179;SDS011;9722;48.754;8.868;2022-09-12T10:40:21;1.00;;;1.00;;
19179;SDS011;9722;48.754;8.868;2022-09-12T10:43:51;0.80;;;0.80;;
19179;SDS011;9722;48.754;8.868;2022-09-12T10:47:19;0.90;;;0.90;;
19179;SDS011;9722;48.754;8.868;2022-09-12T10:50:41;0.95;;;0.90;;
19179;SDS011;9722;48.754;8.868;2022-09-12T10:54:03;1.00;;;1.00;;
19179;SDS011;9722;48.754;8.868;2022-09-12T11:04:52;2.20;;;1.00;;
19179;SDS011;9722;48.754;8.868;2022-09-12T11:15:46;0.90;;;0.90;;
19179;SDS011;9722;48.754;8.868;2022-09-12T11:19:29;0.88;;;0.88;;
19179;SDS011;9722;48.754;8.868;2022-09-12T11:22:59;0.83;;;0.83;;
19179;SDS011;9722;48.754;8.868;2022-09-12T11:33:32;1.20;;;1.20;;
19179;SDS011;9722;48.754;8.868;2022-09-12T11:37:12;1.20;;;1.10;;
19179;SDS011;9722;48.754;8.868;2022-09-12T11:40:48;0.82;;;0.82;;
19179;SDS011;9722;48.754;8.868;2022-09-12T11:44:16;0.90;;;0.90;;
19179;SDS011;9722;48.754;8.868;2022-09-12T11:47:43;0.57;;;0.50;;
19179;SDS011;9722;48.754;8.868;2022-09-12T11:51:06;0.70;;;0.70;;
19179;SDS011;9722;48.754;8.868;2022-09-12T11:58:20;0.80;;;0.80;;
19179;SDS011;9722;48.754;8.868;2022-09-12T12:01:44;0.98;;;0.88;;
19179;SDS011;9722;48.754;8.868;2022-09-12T12:05:19;0.70;;;0.70;;
19179;SDS011;9722;48.754;8.868;2022-09-12T12:08:47;0.85;;;0.73;;
19179;SDS011;9722;48.754;8.868;2022-09-12T12:12:10;2.33;;;1.10;;
19179;SDS011;9722;48.754;8.868;2022-09-12T12:15:35;0.60;;;0.60;;
19179;SDS011;9722;48.754;8.868;2022-09-12T12:19:02;0.60;;;0.60;;
19179;SDS011;9722;48.754;8.868;2022-09-12T12:22:26;1.50;;;0.85;;
19179;SDS011;9722;48.754;8.868;2022-09-12T12:25:52;1.02;;;0.60;;
19179;SDS011;9722;48.754;8.868;2022-09-12T12:32:40;0.73;;;0.73;;
19179;SDS011;9722;48.754;8.868;2022-09-12T12:36:03;1.65;;;0.57;;
19179;SDS011;9722;48.754;8.868;2022-09-12T12:43:00;0.85;;;0.40;;
19179;SDS011;9722;48.754;8.868;2022-09-12T12:46:22;0.55;;;0.50;;
19179;SDS011;9722;48.754;8.868;2022-09-12T12:49:49;0.98;;;0.65;;
19179;SDS011;9722;48.754;8.868;2022-09-12T12:53:20;0.68;;;0.60;;
19179;SDS011;9722;48.754;8.868;2022-09-12T12:56:44;0.50;;;0.50;;
19179;SDS011;9722;48.754;8.868;2022-09-12T13:00:21;0.95;;;0.80;;
19179;SDS011;9722;48.754;8.868;2022-09-12T13:03:55;0.80;;;0.80;;
19179;SDS011;9722;48.754;8.868;2022-09-12T13:07:23;0.57;;;0.57;;
19179;SDS011;9722;48.754;8.868;2022-09-12T13:14:32;1.20;;;0.80;;
19179;SDS011;9722;48.754;8.868;2022-09-12T13:17:57;0.50;;;0.50;;
19179;SDS011;9722;48.754;8.868;2022-09-12T13:21:20;0.55;;;0.55;;
19179;SDS011;9722;48.754;8.868;2022-09-12T13:24:46;0.57;;;0.50;;
19179;SDS011;9722;48.754;8.868;2022-09-12T13:31:31;0.88;;;0.65;;
19179;SDS011;9722;48.754;8.868;2022-09-12T13:38:26;0.70;;;0.70;;
19179;SDS011;9722;48.754;8.868;2022-09-12T13:45:23;0.50;;;0.50;;
19179;SDS011;9722;48.754;8.868;2022-09-12T13:48:46;0.70;;;0.40;;
19179;SDS011;9722;48.754;8.868;2022-09-12T13:52:08;0.63;;;0.50;;
19179;SDS011;9722;48.754;8.868;2022-09-12T13:55:40;1.10;;;0.90;;
19179;SDS011;9722;48.754;8.868;2022-09-12T13:59:08;1.77;;;0.70;;
19179;SDS011;9722;48.754;8.868;2022-09-12T14:02:33;1.42;;;0.55;;
19179;SDS011;9722;48.754;8.868;2022-09-12T14:05:55;0.40;;;0.40;;
19179;SDS011;9722;48.754;8.868;2022-09-12T14:12:48;0.40;;;0.40;;
19179;SDS011;9722;48.754;8.868;2022-09-12T14:16:11;1.60;;;0.60;;
19179;SDS011;9722;48.754;8.868;2022-09-12T14:19:35;0.60;;;0.60;;
19179;SDS011;9722;48.754;8.868;2022-09-12T14:23:02;0.70;;;0.70;;
19179;SDS011;9722;48.754;8.868;2022-09-12T14:26:36;1.03;;;0.33;;
19179;SDS011;9722;48.754;8.868;2022-09-12T14:30:00;0.50;;;0.50;;
19179;SDS011;9722;48.754;8.868;2022-09-12T14:33:24;0.50;;;0.50;;
19179;SDS011;9722;48.754;8.868;2022-09-12T14:36:49;0.80;;;0.40;;
19179;SDS011;9722;48.754;8.868;2022-09-12T14:40:16;1.63;;;0.60;;
19179;SDS011;9722;48.754;8.868;2022-09-12T14:43:43;0.60;;;0.57;;
19179;SDS011;9722;48.754;8.868;2022-09-12T14:47:13;0.60;;;0.60;;
19179;SDS011;9722;48.754;8.868;2022-09-12T14:50:39;2.33;;;0.93;;
19179;SDS011;9722;48.754;8.868;2022-09-12T14:54:00;0.97;;;0.50;;
19179;SDS011;9722;48.754;8.868;2022-09-12T14:57:34;1.07;;;0.70;;
19179;SDS011;9722;48.754;8.868;2022-09-12T15:00:59;0.63;;;0.63;;
19179;SDS011;9722;48.754;8.868;2022-09-12T15:04:39;0.63;;;0.63;;
19179;SDS011;9722;48.754;8.868;2022-09-12T15:08:01;0.70;;;0.70;;
19179;SDS011;9722;48.754;8.868;2022-09-12T15:11:21;0.60;;;0.60;;
19179;SDS011;9722;48.754;8.868;2022-09-12T15:14:42;2.40;;;0.70;;
19179;SDS011;9722;48.754;8.868;2022-09-12T15:18:02;0.80;;;0.80;;
19179;SDS011;9722;48.754;8.868;2022-09-12T15:21:24;0.90;;;0.90;;
19179;SDS011;9722;48.754;8.868;2022-09-12T15:24:45;0.97;;;0.83;;
19179;SDS011;9722;48.754;8.868;2022-09-12T15:28:14;0.67;;;0.67;;
19179;SDS011;9722;48.754;8.868;2022-09-12T15:31:36;0.70;;;0.70;;
19179;SDS011;9722;48.754;8.868;2022-09-12T15:34:59;0.80;;;0.80;;
19179;SDS011;9722;48.754;8.868;2022-09-12T15:38:19;2.20;;;1.00;;
19179;SDS011;9722;48.754;8.868;2022-09-12T15:41:40;1.10;;;0.77;;
19179;SDS011;9722;48.754;8.868;2022-09-12T15:45:01;0.80;;;0.80;;
19179;SDS011;9722;48.754;8.868;2022-09-12T15:48:25;0.60;;;0.60;;
19179;SDS011;9722;48.754;8.868;2022-09-12T15:51:46;0.97;;;0.90;;
19179;SDS011;9722;48.754;8.868;2022-09-12T15:55:48;1.47;;;0.77;;
19179;SDS011;9722;48.754;8.868;2022-09-12T15:58:53;1.53;;;0.77;;
19179;SDS011;9722;48.754;8.868;2022-09-12T16:02:13;0.67;;;0.67;;
19179;SDS011;9722;48.754;8.868;2022-09-12T16:05:34;0.90;;;0.60;;
19179;SDS011;9722;48.754;8.868;2022-09-12T16:08:55;3.30;;;0.80;;
19179;SDS011;9722;48.754;8.868;2022-09-12T16:12:16;1.13;;;0.70;;
19179;SDS011;9722;48.754;8.868;2022-09-12T16:15:36;1.00;;;1.00;;
19179;SDS011;9722;48.754;8.868;2022-09-12T16:18:57;1.60;;;0.80;;
19179;SDS011;9722;48.754;8.868;2022-09-12T16:22:17;1.17;;;0.90;;
19179;SDS011;9722;48.754;8.868;2022-09-12T16:25:39;1.70;;;1.20;;
19179;SDS011;9722;48.754;8.868;2022-09-12T16:29:00;3.43;;;2.60;;
19179;SDS011;9722;48.754;8.868;2022-09-12T16:32:20;2.07;;;1.30;;
19179;SDS011;9722;48.754;8.868;2022-09-12T16:35:40;3.60;;;3.40;;
19179;SDS011;9722;48.754;8.868;2022-09-12T16:39:01;3.37;;;2.50;;
19179;SDS011;9722;48.754;8.868;2022-09-12T16:42:22;1.30;;;1.20;;
19179;SDS011;9722;48.754;8.868;2022-09-12T16:45:43;3.30;;;3.00;;
19179;SDS011;9722;48.754;8.868;2022-09-12T16:49:03;2.20;;;2.00;;
19179;SDS011;9722;48.754;8.868;2022-09-12T16:52:25;4.60;;;1.60;;
19179;SDS011;9722;48.754;8.868;2022-09-12T16:55:48;2.70;;;2.40;;
19179;SDS011;9722;48.754;8.868;2022-09-12T16:59:09;2.37;;;2.27;;
19179;SDS011;9722;48.754;8.868;2022-09-12T17:02:33;2.87;;;1.20;;
19179;SDS011;9722;48.754;8.868;2022-09-12T17:05:57;2.73;;;1.90;;
19179;SDS011;9722;48.754;8.868;2022-09-12T17:09:22;1.20;;;1.10;;
19179;SDS011;9722;48.754;8.868;2022-09-12T17:12:43;1.50;;;1.10;;
19179;SDS011;9722;48.754;8.868;2022-09-12T17:16:04;2.50;;;1.20;;
19179;SDS011;9722;48.754;8.868;2022-09-12T17:19:26;1.30;;;1.13;;
19179;SDS011;9722;48.754;8.868;2022-09-12T17:22:48;2.40;;;1.33;;
19179;SDS011;9722;48.754;8.868;2022-09-12T17:26:09;2.10;;;1.03;;
19179;SDS011;9722;48.754;8.868;2022-09-12T17:29:30;1.17;;;1.10;;
19179;SDS011;9722;48.754;8.868;2022-09-12T17:32:53;1.30;;;1.00;;
19179;SDS011;9722;48.754;8.868;2022-09-12T17:36:14;2.47;;;0.90;;
19179;SDS011;9722;48.754;8.868;2022-09-12T17:39:36;1.67;;;1.57;;
19179;SDS011;9722;48.754;8.868;2022-09-12T17:42:57;3.67;;;1.10;;
19179;SDS011;9722;48.754;8.868;2022-09-12T17:46:18;2.77;;;1.30;;
19179;SDS011;9722;48.754;8.868;2022-09-12T17:49:38;1.97;;;1.13;;
19179;SDS011;9722;48.754;8.868;2022-09-12T17:52:59;2.30;;;1.20;;
19179;SDS011;9722;48.754;8.868;2022-09-12T17:56:20;1.20;;;1.10;;
19179;SDS011;9722;48.754;8.868;2022-09-12T17:59:40;2.27;;;1.30;;
19179;SDS011;9722;48.754;8.868;2022-09-12T18:03:01;3.70;;;1.40;;
19179;SDS011;9722;48.754;8.868;2022-09-12T18:06:22;1.87;;;1.00;;
19179;SDS011;9722;48.754;8.868;2022-09-12T18:09:43;2.80;;;1.30;;
19179;SDS011;9722;48.754;8.868;2022-09-12T18:13:06;1.53;;;1.00;;
19179;SDS011;9722;48.754;8.868;2022-09-12T18:16:27;2.27;;;1.50;;
19179;SDS011;9722;48.754;8.868;2022-09-12T18:19:48;1.17;;;1.10;;
19179;SDS011;9722;48.754;8.868;2022-09-12T18:23:10;2.87;;;1.37;;
19179;SDS011;9722;48.754;8.868;2022-09-12T18:26:31;1.87;;;1.30;;
19179;SDS011;9722;48.754;8.868;2022-09-12T18:29:52;3.10;;;1.27;;
19179;SDS011;9722;48.754;8.868;2022-09-12T18:33:13;1.80;;;1.20;;
19179;SDS011;9722;48.754;8.868;2022-09-12T18:36:33;1.23;;;1.17;;
19179;SDS011;9722;48.754;8.868;2022-09-12T18:39:54;1.33;;;1.23;;
19179;SDS011;9722;48.754;8.868;2022-09-12T18:43:16;3.53;;;1.60;;
19179;SDS011;9722;48.754;8.868;2022-09-12T18:46:37;2.47;;;1.37;;
19179;SDS011;9722;48.754;8.868;2022-09-12T18:49:57;3.23;;;1.47;;
19179;SDS011;9722;48.754;8.868;2022-09-12T18:53:18;3.13;;;1.53;;
19179;SDS011;9722;48.754;8.868;2022-09-12T18:56:38;1.53;;;1.40;;
19179;SDS011;9722;48.754;8.868;2022-09-12T19:00:02;2.73;;;1.30;;
19179;SDS011;9722;48.754;8.868;2022-09-12T19:03:24;1.90;;;1.60;;
19179;SDS011;9722;48.754;8.868;2022-09-12T19:06:45;2.73;;;1.60;;
19179;SDS011;9722;48.754;8.868;2022-09-12T19:10:07;2.10;;;1.30;;
19179;SDS011;9722;48.754;8.868;2022-09-12T19:13:28;2.90;;;1.40;;
19179;SDS011;9722;48.754;8.868;2022-09-12T19:16:48;4.30;;;1.63;;
19179;SDS011;9722;48.754;8.868;2022-09-12T19:20:10;1.30;;;1.30;;
19179;SDS011;9722;48.754;8.868;2022-09-12T19:23:32;1.50;;;1.40;;
19179;SDS011;9722;48.754;8.868;2022-09-12T19:26:54;2.60;;;1.20;;
19179;SDS011;9722;48.754;8.868;2022-09-12T19:30:14;1.40;;;1.30;;
19179;SDS011;9722;48.754;8.868;2022-09-12T19:33:35;4.00;;;1.77;;
19179;SDS011;9722;48.754;8.868;2022-09-12T19:36:56;3.83;;;1.73;;
19179;SDS011;9722;48.754;8.868;2022-09-12T19:40:18;2.27;;;1.57;;
19179;SDS011;9722;48.754;8.868;2022-09-12T19:43:38;1.73;;;1.30;;
19179;SDS011;9722;48.754;8.868;2022-09-12T19:46:59;1.70;;;1.60;;
19179;SDS011;9722;48.754;8.868;2022-09-12T19:50:19;1.90;;;1.60;;
19179;SDS011;9722;48.754;8.868;2022-09-12T19:53:40;1.40;;;1.30;;
19179;SDS011;9722;48.754;8.868;2022-09-12T19:57:01;3.33;;;1.53;;
19179;SDS011;9722;48.754;8.868;2022-09-12T20:00:22;1.40;;;1.30;;
19179;SDS011;9722;48.754;8.868;2022-09-12T20:03:43;4.17;;;1.50;;
19179;SDS011;9722;48.754;8.868;2022-09-12T20:07:03;3.47;;;1.87;;
19179;SDS011;9722;48.754;8.868;2022-09-12T20:10:24;2.00;;;1.37;;
19179;SDS011;9722;48.754;8.868;2022-09-12T20:13:45;1.63;;;1.53;;
19179;SDS011;9722;48.754;8.868;2022-09-12T20:17:06;2.00;;;1.80;;
19179;SDS011;9722;48.754;8.868;2022-09-12T20:20:26;2.10;;;1.50;;
19179;SDS011;9722;48.754;8.868;2022-09-12T20:23:47;2.97;;;1.47;;
19179;SDS011;9722;48.754;8.868;2022-09-12T20:27:08;4.97;;;1.63;;
19179;SDS011;9722;48.754;8.868;2022-09-12T20:30:28;3.20;;;1.80;;
19179;SDS011;9722;48.754;8.868;2022-09-12T20:33:49;2.30;;;2.10;;
19179;SDS011;9722;48.754;8.868;2022-09-12T20:37:09;3.30;;;1.63;;
19179;SDS011;9722;48.754;8.868;2022-09-12T20:40:30;5.60;;;1.93;;
19179;SDS011;9722;48.754;8.868;2022-09-12T20:43:51;2.10;;;1.67;;
19179;SDS011;9722;48.754;8.868;2022-09-12T20:47:13;1.70;;;1.60;;
19179;SDS011;9722;48.754;8.868;2022-09-12T20:50:33;3.10;;;1.87;;
19179;SDS011;9722;48.754;8.868;2022-09-12T20:53:58;4.03;;;1.67;;
19179;SDS011;9722;48.754;8.868;2022-09-12T20:57:19;2.20;;;2.00;;
19179;SDS011;9722;48.754;8.868;2022-09-12T21:00:40;1.87;;;1.77;;
19179;SDS011;9722;48.754;8.868;2022-09-12T21:04:01;4.00;;;1.77;;
19179;SDS011;9722;48.754;8.868;2022-09-12T21:07:21;3.33;;;1.90;;
19179;SDS011;9722;48.754;8.868;2022-09-12T21:10:42;2.30;;;1.80;;
19179;SDS011;9722;48.754;8.868;2022-09-12T21:14:03;2.13;;;2.00;;
19179;SDS011;9722;48.754;8.868;2022-09-12T21:17:24;3.03;;;2.10;;
19179;SDS011;9722;48.754;8.868;2022-09-12T21:20:49;2.27;;;1.73;;
19179;SDS011;9722;48.754;8.868;2022-09-12T21:24:12;2.17;;;1.97;;
19179;SDS011;9722;48.754;8.868;2022-09-12T21:27:33;3.47;;;1.87;;
19179;SDS011;9722;48.754;8.868;2022-09-12T21:30:54;2.90;;;1.67;;
19179;SDS011;9722;48.754;8.868;2022-09-12T21:34:15;3.13;;;2.13;;
19179;SDS011;9722;48.754;8.868;2022-09-12T21:37:35;2.10;;;1.93;;
19179;SDS011;9722;48.754;8.868;2022-09-12T21:41:08;2.80;;;2.07;;
19179;SDS011;9722;48.754;8.868;2022-09-12T21:44:31;3.23;;;1.97;;
19179;SDS011;9722;48.754;8.868;2022-09-12T21:47:51;3.93;;;1.87;;
19179;SDS011;9722;48.754;8.868;2022-09-12T21:51:12;2.50;;;2.30;;
19179;SDS011;9722;48.754;8.868;2022-09-12T21:54:32;2.20;;;2.00;;
19179;SDS011;9722;48.754;8.868;2022-09-12T21:57:55;1.90;;;1.80;;
19179;SDS011;9722;48.754;8.868;2022-09-12T22:01:16;2.23;;;2.03;;
19179;SDS011;9722;48.754;8.868;2022-09-12T22:04:36;2.10;;;1.90;;
19179;SDS011;9722;48.754;8.868;2022-09-12T22:07:57;2.20;;;1.90;;
19179;SDS011;9722;48.754;8.868;2022-09-12T22:11:19;1.87;;;1.70;;